This is the latest recevied weather packets stored in our database for station/object DH6PF-10. If no packets are shown the sender has not sent any weather packets the latest 10 day(s).
| Time | Temp. | Humidity | Pressure | Rain* | Wind** | Luminosity | Snow |
|---|---|---|---|---|---|---|---|
| 1787920311 | 23.33° C | 65% | 1012 hPa | - | - | - | - |
| 1787919711 | 23.33° C | 60% | 1012.2 hPa | - | - | - | - |
| 1787919111 | 23.33° C | 75% | 1011.5 hPa | - | - | - | - |
| 1787918511 | 23.89° C | 68% | 1011.4 hPa | - | - | - | - |
| 1787917911 | 24.44° C | 69% | 1011.4 hPa | - | - | - | - |
| 1787917311 | 23.89° C | 74% | 1011.7 hPa | - | - | - | - |
| 1787916711 | 25° C | 71% | 1011.6 hPa | - | - | - | - |
| 1787916111 | 25° C | 67% | 1011.6 hPa | - | - | - | - |
| 1787915511 | 23.33° C | 76% | 1011.6 hPa | - | - | - | - |
| 1787914911 | 22.22° C | 79% | 1011.8 hPa | - | - | - | - |
| 1787914311 | 25° C | 73% | 1011.7 hPa | - | - | - | - |
| 1787913711 | 23.89° C | 78% | 1011.6 hPa | - | - | - | - |
| 1787913111 | 23.89° C | 78% | 1011.9 hPa | - | - | - | - |
| 1787912511 | 23.89° C | 83% | 1012.1 hPa | - | - | - | - |
| 1787911911 | 22.22° C | 88% | 1012 hPa | - | - | - | - |
| 1787911311 | 21.67° C | 91% | 1012.5 hPa | - | - | - | - |
| 1787910711 | 21.11° C | 94% | 1012.4 hPa | - | - | - | - |
| 1787910111 | 21.11° C | 95% | 1012 hPa | - | - | - | - |
| 1787909511 | 20.56° C | 95% | 1012.2 hPa | - | - | - | - |
| 1787908911 | 21.11° C | 95% | 1012 hPa | - | - | - | - |
| 1787908311 | 20.56° C | 95% | 1011.8 hPa | - | - | - | - |
| 1787907711 | 20.56° C | 95% | 1011.7 hPa | - | - | - | - |
| 1787907111 | 20° C | 96% | 1011.5 hPa | - | - | - | - |
| 1787906511 | 20.56° C | 96% | 1011.4 hPa | - | - | - | - |
| 1787905911 | 20° C | 96% | 1011.5 hPa | - | - | - | - |
* Rain since midnight (hover to see other rain measurements)
** Current wind speed in m/s (hover to see current wind gust speed)